This is the latest recevied weather packets stored in our database for station/object BMCB-31. If no packets are shown the sender has not sent any weather packets the latest 10 day(s).
| Time | Temp. | Humidity | Pressure | Rain* | Wind** | Luminosity | Snow |
|---|---|---|---|---|---|---|---|
| 1777551058 | 16.11° C | 26% | 1026.8 hPa | 0 mm | - | 610 W/m² | - |
| 1777546854 | 15° C | 27% | 1027.3 hPa | 0 mm | - | 610 W/m² | - |
| 1777536655 | 11.67° C | 32% | 1027.6 hPa | 0 mm | - | 392 W/m² | - |
| 1777533658 | 10° C | 38% | 1027.8 hPa | 0 mm | - | 290 W/m² | - |
| 1777530055 | 8.33° C | 41% | 1027.8 hPa | 0 mm | - | 168 W/m² | - |
| 1777521054 | 6.67° C | 44% | 1027.8 hPa | 0 mm | - | 0 W/m² | - |
| 1777516255 | 7.22° C | 44% | 1028 hPa | 0 mm | - | 0 W/m² | - |
| 1777512056 | 7.78° C | 45% | 1028 hPa | 0 mm | - | 0 W/m² | - |
| 1777498862 | 10° C | 42% | 1027.3 hPa | 0 mm | - | 0 W/m² | - |
| 1777485657 | 15° C | 29% | 1025 hPa | 0 mm | - | 22 W/m² | - |
| 1777484449 | 15.56° C | 28% | 1024.9 hPa | 0 mm | - | 36 W/m² | - |
| 1777480858 | 16.67° C | 26% | 1024.6 hPa | 0 mm | - | 192 W/m² | - |
| 1777476055 | 16.67° C | 30% | 1024.4 hPa | 0 mm | - | 354 W/m² | - |
| 1777474257 | 16.67° C | 30% | 1024.6 hPa | 0 mm | - | 412 W/m² | - |
| 1777447856 | 11.67° C | 39% | 1025 hPa | 0 mm | - | 304 W/m² | - |
| 1777447255 | 11.67° C | 39% | 1024.9 hPa | 0 mm | - | 284 W/m² | - |
| 1777443054 | 9.44° C | 43% | 1024.7 hPa | 0 mm | - | 142 W/m² | - |
| 1777439456 | 7.78° C | 46% | 1024.5 hPa | 0 mm | - | 20 W/m² | - |
| 1777432854 | 7.78° C | 51% | 1024.3 hPa | 0 mm | - | 0 W/m² | - |
| 1777432255 | 7.78° C | 49% | 1024.1 hPa | 0 mm | - | 0 W/m² | - |
| 1777425657 | 9.44° C | 47% | 1023.6 hPa | 0 mm | - | 0 W/m² | - |
| 1777424455 | 9.44° C | 48% | 1023.6 hPa | 0 mm | - | 0 W/m² | - |
| 1777420257 | 10° C | 52% | 1023.9 hPa | 0 mm | - | 0 W/m² | - |
| 1777418459 | 10.56° C | 52% | 1023.7 hPa | 0 mm | - | 0 W/m² | - |
| 1777416059 | 10.56° C | 52% | 1023.6 hPa | 0 mm | - | 0 W/m² | - |
* Rain latest hour (hover to see other rain measurements)
** Current wind speed in m/s (hover to see current wind gust speed)